sensor_id;sensor_type;location;lat;lon;timestamp;P1;durP1;ratioP1;P2;durP2;ratioP2
1567;SDS011;777;47.156;8.326;2022-11-15T00:00:20;33.45;;;18.55;;
1567;SDS011;777;47.156;8.326;2022-11-15T00:03:06;92.97;;;19.67;;
1567;SDS011;777;47.156;8.326;2022-11-15T00:05:51;71.20;;;18.60;;
1567;SDS011;777;47.156;8.326;2022-11-15T00:08:37;62.90;;;20.33;;
1567;SDS011;777;47.156;8.326;2022-11-15T00:11:23;60.00;;;20.77;;
1567;SDS011;777;47.156;8.326;2022-11-15T00:14:09;29.85;;;18.92;;
1567;SDS011;777;47.156;8.326;2022-11-15T00:16:55;56.58;;;25.25;;
1567;SDS011;777;47.156;8.326;2022-11-15T00:19:40;30.80;;;17.60;;
1567;SDS011;777;47.156;8.326;2022-11-15T00:22:30;82.35;;;21.15;;
1567;SDS011;777;47.156;8.326;2022-11-15T00:25:16;59.42;;;19.30;;
1567;SDS011;777;47.156;8.326;2022-11-15T00:28:03;99.55;;;23.20;;
1567;SDS011;777;47.156;8.326;2022-11-15T00:30:49;117.95;;;22.58;;
1567;SDS011;777;47.156;8.326;2022-11-15T00:33:34;55.90;;;20.58;;
1567;SDS011;777;47.156;8.326;2022-11-15T00:36:20;78.95;;;23.15;;
1567;SDS011;777;47.156;8.326;2022-11-15T00:39:05;71.35;;;22.75;;
1567;SDS011;777;47.156;8.326;2022-11-15T00:41:51;33.50;;;18.85;;
1567;SDS011;777;47.156;8.326;2022-11-15T00:44:37;23.88;;;19.70;;
1567;SDS011;777;47.156;8.326;2022-11-15T00:47:22;21.05;;;18.80;;
1567;SDS011;777;47.156;8.326;2022-11-15T00:50:08;21.15;;;17.25;;
1567;SDS011;777;47.156;8.326;2022-11-15T00:52:54;21.38;;;18.23;;
1567;SDS011;777;47.156;8.326;2022-11-15T00:55:39;19.75;;;16.20;;
1567;SDS011;777;47.156;8.326;2022-11-15T00:58:25;21.05;;;17.55;;
1567;SDS011;777;47.156;8.326;2022-11-15T01:01:12;21.08;;;17.27;;
1567;SDS011;777;47.156;8.326;2022-11-15T01:03:59;19.08;;;16.77;;
1567;SDS011;777;47.156;8.326;2022-11-15T01:06:44;20.25;;;17.10;;
1567;SDS011;777;47.156;8.326;2022-11-15T01:09:30;17.92;;;16.00;;
1567;SDS011;777;47.156;8.326;2022-11-15T01:12:15;20.88;;;16.73;;
1567;SDS011;777;47.156;8.326;2022-11-15T01:15:01;19.88;;;17.10;;
1567;SDS011;777;47.156;8.326;2022-11-15T01:17:48;17.60;;;15.10;;
1567;SDS011;777;47.156;8.326;2022-11-15T01:20:33;17.25;;;15.45;;
1567;SDS011;777;47.156;8.326;2022-11-15T01:23:19;18.15;;;16.23;;
1567;SDS011;777;47.156;8.326;2022-11-15T01:26:05;18.10;;;15.07;;
1567;SDS011;777;47.156;8.326;2022-11-15T01:28:52;17.10;;;15.40;;
1567;SDS011;777;47.156;8.326;2022-11-15T01:31:38;22.10;;;16.40;;
1567;SDS011;777;47.156;8.326;2022-11-15T01:34:25;20.15;;;15.75;;
1567;SDS011;777;47.156;8.326;2022-11-15T01:37:10;17.80;;;16.08;;
1567;SDS011;777;47.156;8.326;2022-11-15T01:39:55;18.73;;;15.85;;
1567;SDS011;777;47.156;8.326;2022-11-15T01:42:41;18.15;;;15.43;;
1567;SDS011;777;47.156;8.326;2022-11-15T01:45:26;17.15;;;15.07;;
1567;SDS011;777;47.156;8.326;2022-11-15T01:48:12;17.23;;;15.48;;
1567;SDS011;777;47.156;8.326;2022-11-15T01:50:58;16.77;;;15.02;;
1567;SDS011;777;47.156;8.326;2022-11-15T01:53:47;18.63;;;15.48;;
1567;SDS011;777;47.156;8.326;2022-11-15T01:56:36;17.15;;;14.93;;
1567;SDS011;777;47.156;8.326;2022-11-15T01:59:26;16.10;;;14.50;;
1567;SDS011;777;47.156;8.326;2022-11-15T02:02:12;16.48;;;14.55;;
1567;SDS011;777;47.156;8.326;2022-11-15T02:04:58;18.05;;;16.13;;
1567;SDS011;777;47.156;8.326;2022-11-15T02:07:45;16.98;;;15.15;;
1567;SDS011;777;47.156;8.326;2022-11-15T02:10:32;17.67;;;15.88;;
1567;SDS011;777;47.156;8.326;2022-11-15T02:13:17;16.15;;;14.55;;
1567;SDS011;777;47.156;8.326;2022-11-15T02:16:05;17.92;;;16.17;;
1567;SDS011;777;47.156;8.326;2022-11-15T02:19:02;17.50;;;15.77;;
1567;SDS011;777;47.156;8.326;2022-11-15T02:21:59;18.73;;;16.27;;
1567;SDS011;777;47.156;8.326;2022-11-15T02:25:00;18.58;;;16.02;;
1567;SDS011;777;47.156;8.326;2022-11-15T02:27:55;22.23;;;15.98;;
1567;SDS011;777;47.156;8.326;2022-11-15T02:30:57;18.23;;;16.35;;
1567;SDS011;777;47.156;8.326;2022-11-15T02:33:51;18.55;;;16.63;;
1567;SDS011;777;47.156;8.326;2022-11-15T02:36:40;22.85;;;19.20;;
1567;SDS011;777;47.156;8.326;2022-11-15T02:39:31;18.70;;;16.75;;
1567;SDS011;777;47.156;8.326;2022-11-15T02:42:23;19.15;;;17.25;;
1567;SDS011;777;47.156;8.326;2022-11-15T02:45:29;18.27;;;16.38;;
1567;SDS011;777;47.156;8.326;2022-11-15T02:48:21;22.85;;;17.30;;
1567;SDS011;777;47.156;8.326;2022-11-15T02:51:08;19.17;;;17.17;;
1567;SDS011;777;47.156;8.326;2022-11-15T02:53:54;20.85;;;18.65;;
1567;SDS011;777;47.156;8.326;2022-11-15T02:56:39;20.05;;;17.02;;
1567;SDS011;777;47.156;8.326;2022-11-15T02:59:36;21.05;;;18.73;;
1567;SDS011;777;47.156;8.326;2022-11-15T03:02:43;19.25;;;17.25;;
1567;SDS011;777;47.156;8.326;2022-11-15T03:06:02;20.88;;;18.40;;
1567;SDS011;777;47.156;8.326;2022-11-15T03:08:56;22.52;;;18.92;;
1567;SDS011;777;47.156;8.326;2022-11-15T03:11:49;20.30;;;18.20;;
1567;SDS011;777;47.156;8.326;2022-11-15T03:14:42;18.95;;;16.65;;
1567;SDS011;777;47.156;8.326;2022-11-15T03:17:35;15.25;;;13.60;;
1567;SDS011;777;47.156;8.326;2022-11-15T03:20:25;20.45;;;17.20;;
1567;SDS011;777;47.156;8.326;2022-11-15T03:23:13;26.67;;;19.60;;
1567;SDS011;777;47.156;8.326;2022-11-15T03:25:59;25.27;;;19.02;;
1567;SDS011;777;47.156;8.326;2022-11-15T03:28:46;22.92;;;19.63;;
1567;SDS011;777;47.156;8.326;2022-11-15T03:31:36;19.73;;;17.67;;
1567;SDS011;777;47.156;8.326;2022-11-15T03:34:32;27.20;;;20.73;;
1567;SDS011;777;47.156;8.326;2022-11-15T03:37:22;24.42;;;20.20;;
1567;SDS011;777;47.156;8.326;2022-11-15T03:40:17;22.92;;;19.52;;
1567;SDS011;777;47.156;8.326;2022-11-15T03:43:09;139.73;;;26.90;;
1567;SDS011;777;47.156;8.326;2022-11-15T03:46:01;247.68;;;24.15;;
1567;SDS011;777;47.156;8.326;2022-11-15T03:48:52;527.38;;;27.88;;
1567;SDS011;777;47.156;8.326;2022-11-15T03:51:43;407.35;;;26.52;;
1567;SDS011;777;47.156;8.326;2022-11-15T03:54:28;378.38;;;25.48;;
1567;SDS011;777;47.156;8.326;2022-11-15T03:57:15;213.38;;;21.65;;
1567;SDS011;777;47.156;8.326;2022-11-15T04:00:01;214.60;;;21.60;;
1567;SDS011;777;47.156;8.326;2022-11-15T04:02:47;106.28;;;22.75;;
1567;SDS011;777;47.156;8.326;2022-11-15T04:05:33;85.75;;;20.92;;
1567;SDS011;777;47.156;8.326;2022-11-15T04:08:18;94.65;;;19.33;;
1567;SDS011;777;47.156;8.326;2022-11-15T04:11:03;74.28;;;18.95;;
1567;SDS011;777;47.156;8.326;2022-11-15T04:13:50;100.60;;;16.33;;
1567;SDS011;777;47.156;8.326;2022-11-15T04:16:36;104.25;;;15.43;;
1567;SDS011;777;47.156;8.326;2022-11-15T04:19:21;62.72;;;15.75;;
1567;SDS011;777;47.156;8.326;2022-11-15T04:22:25;28.95;;;12.55;;
1567;SDS011;777;47.156;8.326;2022-11-15T04:25:28;75.07;;;14.65;;
1567;SDS011;777;47.156;8.326;2022-11-15T04:28:14;57.65;;;17.27;;
1567;SDS011;777;47.156;8.326;2022-11-15T04:31:00;20.23;;;14.75;;
1567;SDS011;777;47.156;8.326;2022-11-15T04:33:46;22.80;;;16.13;;
1567;SDS011;777;47.156;8.326;2022-11-15T04:36:31;20.63;;;14.35;;
1567;SDS011;777;47.156;8.326;2022-11-15T04:39:34;27.10;;;15.85;;
1567;SDS011;777;47.156;8.326;2022-11-15T04:42:19;20.48;;;14.98;;
1567;SDS011;777;47.156;8.326;2022-11-15T04:45:05;26.05;;;14.70;;
1567;SDS011;777;47.156;8.326;2022-11-15T04:47:53;25.67;;;15.50;;
1567;SDS011;777;47.156;8.326;2022-11-15T04:50:38;45.35;;;15.27;;
1567;SDS011;777;47.156;8.326;2022-11-15T04:53:23;27.90;;;17.45;;
1567;SDS011;777;47.156;8.326;2022-11-15T04:56:08;31.58;;;17.45;;
1567;SDS011;777;47.156;8.326;2022-11-15T04:58:53;30.98;;;20.63;;
1567;SDS011;777;47.156;8.326;2022-11-15T05:01:39;53.38;;;23.08;;
1567;SDS011;777;47.156;8.326;2022-11-15T05:04:26;72.15;;;25.85;;
1567;SDS011;777;47.156;8.326;2022-11-15T05:07:10;85.18;;;25.40;;
1567;SDS011;777;47.156;8.326;2022-11-15T05:09:55;32.90;;;23.98;;
1567;SDS011;777;47.156;8.326;2022-11-15T05:12:41;29.50;;;23.40;;
1567;SDS011;777;47.156;8.326;2022-11-15T05:15:26;27.67;;;21.92;;
1567;SDS011;777;47.156;8.326;2022-11-15T05:18:12;27.15;;;21.52;;
1567;SDS011;777;47.156;8.326;2022-11-15T05:21:03;24.73;;;20.58;;
1567;SDS011;777;47.156;8.326;2022-11-15T05:23:49;23.27;;;18.65;;
1567;SDS011;777;47.156;8.326;2022-11-15T05:26:35;26.05;;;20.77;;
1567;SDS011;777;47.156;8.326;2022-11-15T05:29:21;19.60;;;16.73;;
1567;SDS011;777;47.156;8.326;2022-11-15T05:32:07;25.02;;;18.50;;
1567;SDS011;777;47.156;8.326;2022-11-15T05:34:54;25.88;;;19.50;;
1567;SDS011;777;47.156;8.326;2022-11-15T05:37:40;22.17;;;17.35;;
1567;SDS011;777;47.156;8.326;2022-11-15T05:40:26;22.40;;;19.00;;
1567;SDS011;777;47.156;8.326;2022-11-15T05:43:13;20.90;;;18.45;;
1567;SDS011;777;47.156;8.326;2022-11-15T05:45:59;20.98;;;16.83;;
1567;SDS011;777;47.156;8.326;2022-11-15T05:48:48;21.25;;;17.13;;
1567;SDS011;777;47.156;8.326;2022-11-15T05:51:35;23.38;;;18.80;;
1567;SDS011;777;47.156;8.326;2022-11-15T05:54:22;24.45;;;19.58;;
1567;SDS011;777;47.156;8.326;2022-11-15T05:57:09;25.85;;;19.75;;
1567;SDS011;777;47.156;8.326;2022-11-15T05:59:55;21.77;;;19.02;;
1567;SDS011;777;47.156;8.326;2022-11-15T06:02:41;23.98;;;20.92;;
1567;SDS011;777;47.156;8.326;2022-11-15T06:05:26;25.45;;;19.90;;
1567;SDS011;777;47.156;8.326;2022-11-15T06:08:12;23.52;;;19.52;;
1567;SDS011;777;47.156;8.326;2022-11-15T06:11:03;21.55;;;18.75;;
1567;SDS011;777;47.156;8.326;2022-11-15T06:13:49;21.67;;;19.17;;
1567;SDS011;777;47.156;8.326;2022-11-15T06:16:34;23.02;;;19.10;;
1567;SDS011;777;47.156;8.326;2022-11-15T06:19:20;21.05;;;17.58;;
1567;SDS011;777;47.156;8.326;2022-11-15T06:22:05;21.70;;;19.05;;
1567;SDS011;777;47.156;8.326;2022-11-15T06:25:09;23.30;;;18.95;;
1567;SDS011;777;47.156;8.326;2022-11-15T06:27:56;20.45;;;18.25;;
1567;SDS011;777;47.156;8.326;2022-11-15T06:30:43;21.88;;;19.02;;
1567;SDS011;777;47.156;8.326;2022-11-15T06:33:28;22.00;;;17.80;;
1567;SDS011;777;47.156;8.326;2022-11-15T06:36:14;28.20;;;20.73;;
1567;SDS011;777;47.156;8.326;2022-11-15T06:39:04;24.10;;;19.83;;
1567;SDS011;777;47.156;8.326;2022-11-15T06:41:50;21.13;;;18.15;;
1567;SDS011;777;47.156;8.326;2022-11-15T06:44:37;21.30;;;18.77;;
1567;SDS011;777;47.156;8.326;2022-11-15T06:47:23;21.52;;;19.23;;
1567;SDS011;777;47.156;8.326;2022-11-15T06:50:09;25.63;;;19.30;;
1567;SDS011;777;47.156;8.326;2022-11-15T06:52:54;23.17;;;18.95;;
1567;SDS011;777;47.156;8.326;2022-11-15T06:55:40;21.02;;;14.75;;
1567;SDS011;777;47.156;8.326;2022-11-15T06:58:25;20.88;;;16.17;;
1567;SDS011;777;47.156;8.326;2022-11-15T07:01:12;16.10;;;13.23;;
1567;SDS011;777;47.156;8.326;2022-11-15T07:03:58;11.77;;;10.38;;
1567;SDS011;777;47.156;8.326;2022-11-15T07:06:45;10.93;;;8.32;;
1567;SDS011;777;47.156;8.326;2022-11-15T07:09:30;10.18;;;6.70;;
1567;SDS011;777;47.156;8.326;2022-11-15T07:12:16;8.73;;;6.40;;
1567;SDS011;777;47.156;8.326;2022-11-15T07:15:01;9.48;;;6.70;;
1567;SDS011;777;47.156;8.326;2022-11-15T07:17:49;10.10;;;6.97;;
1567;SDS011;777;47.156;8.326;2022-11-15T07:20:35;30.08;;;7.28;;
1567;SDS011;777;47.156;8.326;2022-11-15T07:23:20;14.35;;;7.13;;
1567;SDS011;777;47.156;8.326;2022-11-15T07:26:06;7.40;;;6.30;;
1567;SDS011;777;47.156;8.326;2022-11-15T07:28:52;7.68;;;5.97;;
1567;SDS011;777;47.156;8.326;2022-11-15T07:31:38;9.68;;;6.03;;
1567;SDS011;777;47.156;8.326;2022-11-15T07:34:24;7.82;;;6.97;;
1567;SDS011;777;47.156;8.326;2022-11-15T07:37:10;7.85;;;5.93;;
1567;SDS011;777;47.156;8.326;2022-11-15T07:39:56;7.25;;;5.50;;
1567;SDS011;777;47.156;8.326;2022-11-15T07:42:41;7.43;;;5.30;;
1567;SDS011;777;47.156;8.326;2022-11-15T07:45:40;8.57;;;5.35;;
1567;SDS011;777;47.156;8.326;2022-11-15T07:48:26;6.00;;;5.00;;
1567;SDS011;777;47.156;8.326;2022-11-15T07:51:13;8.32;;;5.10;;
1567;SDS011;777;47.156;8.326;2022-11-15T07:53:59;5.50;;;4.68;;
1567;SDS011;777;47.156;8.326;2022-11-15T07:56:45;7.20;;;5.15;;
1567;SDS011;777;47.156;8.326;2022-11-15T07:59:30;7.43;;;5.25;;
1567;SDS011;777;47.156;8.326;2022-11-15T08:02:16;9.02;;;5.13;;
1567;SDS011;777;47.156;8.326;2022-11-15T08:05:01;9.35;;;5.00;;
1567;SDS011;777;47.156;8.326;2022-11-15T08:07:49;6.30;;;4.10;;
1567;SDS011;777;47.156;8.326;2022-11-15T08:10:34;7.43;;;3.80;;
1567;SDS011;777;47.156;8.326;2022-11-15T08:13:20;7.03;;;3.67;;
1567;SDS011;777;47.156;8.326;2022-11-15T08:16:06;6.93;;;3.90;;
1567;SDS011;777;47.156;8.326;2022-11-15T08:18:52;4.90;;;3.80;;
1567;SDS011;777;47.156;8.326;2022-11-15T08:21:38;6.53;;;4.18;;
1567;SDS011;777;47.156;8.326;2022-11-15T08:24:25;5.72;;;3.95;;
1567;SDS011;777;47.156;8.326;2022-11-15T08:27:12;5.53;;;4.47;;
1567;SDS011;777;47.156;8.326;2022-11-15T08:30:00;7.00;;;4.55;;
1567;SDS011;777;47.156;8.326;2022-11-15T08:32:51;8.18;;;4.53;;
1567;SDS011;777;47.156;8.326;2022-11-15T08:35:37;8.88;;;3.80;;
1567;SDS011;777;47.156;8.326;2022-11-15T08:38:23;5.15;;;3.90;;
1567;SDS011;777;47.156;8.326;2022-11-15T08:41:11;4.88;;;3.92;;
1567;SDS011;777;47.156;8.326;2022-11-15T08:43:59;6.43;;;3.85;;
1567;SDS011;777;47.156;8.326;2022-11-15T08:46:45;6.05;;;3.60;;
1567;SDS011;777;47.156;8.326;2022-11-15T08:49:30;5.93;;;3.60;;
1567;SDS011;777;47.156;8.326;2022-11-15T08:52:16;7.50;;;4.00;;
1567;SDS011;777;47.156;8.326;2022-11-15T08:55:01;8.05;;;4.47;;
1567;SDS011;777;47.156;8.326;2022-11-15T08:57:48;9.20;;;4.53;;
1567;SDS011;777;47.156;8.326;2022-11-15T09:00:33;9.50;;;5.38;;
1567;SDS011;777;47.156;8.326;2022-11-15T09:03:19;7.45;;;4.88;;
1567;SDS011;777;47.156;8.326;2022-11-15T09:06:04;7.82;;;4.75;;
1567;SDS011;777;47.156;8.326;2022-11-15T09:08:50;7.60;;;4.68;;
1567;SDS011;777;47.156;8.326;2022-11-15T09:11:35;5.47;;;4.47;;
1567;SDS011;777;47.156;8.326;2022-11-15T09:14:22;7.35;;;4.95;;
1567;SDS011;777;47.156;8.326;2022-11-15T09:17:07;7.47;;;5.00;;
1567;SDS011;777;47.156;8.326;2022-11-15T09:19:53;8.07;;;5.50;;
1567;SDS011;777;47.156;8.326;2022-11-15T09:22:38;7.22;;;5.28;;
1567;SDS011;777;47.156;8.326;2022-11-15T09:25:24;10.70;;;4.85;;
1567;SDS011;777;47.156;8.326;2022-11-15T09:28:09;10.57;;;6.32;;
1567;SDS011;777;47.156;8.326;2022-11-15T09:30:57;8.25;;;5.32;;
1567;SDS011;777;47.156;8.326;2022-11-15T09:33:43;9.32;;;5.72;;
1567;SDS011;777;47.156;8.326;2022-11-15T09:36:29;8.57;;;5.35;;
1567;SDS011;777;47.156;8.326;2022-11-15T09:39:14;7.20;;;5.70;;
1567;SDS011;777;47.156;8.326;2022-11-15T09:42:07;7.80;;;5.55;;
1567;SDS011;777;47.156;8.326;2022-11-15T09:45:13;8.68;;;5.43;;
1567;SDS011;777;47.156;8.326;2022-11-15T09:48:08;5.53;;;5.00;;
1567;SDS011;777;47.156;8.326;2022-11-15T09:51:30;6.25;;;5.10;;
1567;SDS011;777;47.156;8.326;2022-11-15T09:54:04;7.32;;;4.80;;
1567;SDS011;777;47.156;8.326;2022-11-15T09:56:36;7.32;;;5.38;;
1567;SDS011;777;47.156;8.326;2022-11-15T09:59:16;5.90;;;4.22;;
1567;SDS011;777;47.156;8.326;2022-11-15T10:01:56;8.45;;;5.10;;
1567;SDS011;777;47.156;8.326;2022-11-15T10:04:32;9.13;;;6.03;;
1567;SDS011;777;47.156;8.326;2022-11-15T10:07:01;6.20;;;5.50;;
1567;SDS011;777;47.156;8.326;2022-11-15T10:09:31;10.55;;;6.65;;
1567;SDS011;777;47.156;8.326;2022-11-15T10:12:03;7.78;;;5.75;;
1567;SDS011;777;47.156;8.326;2022-11-15T10:14:31;9.10;;;6.28;;
1567;SDS011;777;47.156;8.326;2022-11-15T10:17:02;7.15;;;5.85;;
1567;SDS011;777;47.156;8.326;2022-11-15T10:19:50;8.85;;;7.53;;
1567;SDS011;777;47.156;8.326;2022-11-15T10:22:26;11.30;;;7.05;;
1567;SDS011;777;47.156;8.326;2022-11-15T10:25:00;7.65;;;6.55;;
1567;SDS011;777;47.156;8.326;2022-11-15T10:27:37;10.98;;;6.60;;
1567;SDS011;777;47.156;8.326;2022-11-15T10:30:08;8.77;;;6.30;;
1567;SDS011;777;47.156;8.326;2022-11-15T10:32:37;10.07;;;6.63;;
1567;SDS011;777;47.156;8.326;2022-11-15T10:35:16;12.25;;;7.88;;
1567;SDS011;777;47.156;8.326;2022-11-15T10:37:45;12.25;;;7.75;;
1567;SDS011;777;47.156;8.326;2022-11-15T10:40:15;7.85;;;6.80;;
1567;SDS011;777;47.156;8.326;2022-11-15T10:42:44;8.85;;;6.72;;
1567;SDS011;777;47.156;8.326;2022-11-15T10:47:56;7.20;;;6.47;;
1567;SDS011;777;47.156;8.326;2022-11-15T10:53:20;8.20;;;6.22;;
1567;SDS011;777;47.156;8.326;2022-11-15T10:55:51;6.45;;;5.78;;
1567;SDS011;777;47.156;8.326;2022-11-15T10:58:21;7.72;;;6.53;;
1567;SDS011;777;47.156;8.326;2022-11-15T11:00:57;9.93;;;6.00;;
1567;SDS011;777;47.156;8.326;2022-11-15T11:03:37;9.95;;;5.55;;
1567;SDS011;777;47.156;8.326;2022-11-15T11:06:10;7.50;;;5.95;;
1567;SDS011;777;47.156;8.326;2022-11-15T11:08:58;8.88;;;6.18;;
1567;SDS011;777;47.156;8.326;2022-11-15T11:11:28;9.18;;;6.10;;
1567;SDS011;777;47.156;8.326;2022-11-15T11:14:30;8.48;;;6.28;;
1567;SDS011;777;47.156;8.326;2022-11-15T11:17:02;8.43;;;6.47;;
1567;SDS011;777;47.156;8.326;2022-11-15T11:19:45;7.78;;;6.25;;
1567;SDS011;777;47.156;8.326;2022-11-15T11:22:22;10.73;;;5.93;;
1567;SDS011;777;47.156;8.326;2022-11-15T11:25:05;11.02;;;6.20;;
1567;SDS011;777;47.156;8.326;2022-11-15T11:27:47;7.93;;;6.43;;
1567;SDS011;777;47.156;8.326;2022-11-15T11:30:24;8.65;;;7.03;;
1567;SDS011;777;47.156;8.326;2022-11-15T11:33:08;8.63;;;7.35;;
1567;SDS011;777;47.156;8.326;2022-11-15T11:35:43;8.25;;;7.45;;
1567;SDS011;777;47.156;8.326;2022-11-15T11:38:22;8.88;;;7.15;;
1567;SDS011;777;47.156;8.326;2022-11-15T11:41:03;9.40;;;7.68;;
1567;SDS011;777;47.156;8.326;2022-11-15T11:43:38;10.13;;;8.00;;
1567;SDS011;777;47.156;8.326;2022-11-15T11:46:18;9.52;;;7.72;;
1567;SDS011;777;47.156;8.326;2022-11-15T11:49:08;10.07;;;7.90;;
1567;SDS011;777;47.156;8.326;2022-11-15T11:51:36;8.80;;;7.75;;
1567;SDS011;777;47.156;8.326;2022-11-15T11:54:12;9.65;;;7.30;;
1567;SDS011;777;47.156;8.326;2022-11-15T11:56:42;9.93;;;7.63;;
1567;SDS011;777;47.156;8.326;2022-11-15T11:59:12;7.97;;;7.20;;
1567;SDS011;777;47.156;8.326;2022-11-15T12:01:46;9.23;;;7.00;;
1567;SDS011;777;47.156;8.326;2022-11-15T12:04:14;8.20;;;6.88;;
1567;SDS011;777;47.156;8.326;2022-11-15T12:06:46;7.47;;;6.65;;
1567;SDS011;777;47.156;8.326;2022-11-15T12:09:19;11.07;;;6.82;;
1567;SDS011;777;47.156;8.326;2022-11-15T12:11:51;7.53;;;6.72;;
1567;SDS011;777;47.156;8.326;2022-11-15T12:14:29;9.45;;;7.10;;
1567;SDS011;777;47.156;8.326;2022-11-15T12:17:00;7.10;;;6.40;;
1567;SDS011;777;47.156;8.326;2022-11-15T12:19:28;6.13;;;5.50;;
1567;SDS011;777;47.156;8.326;2022-11-15T12:21:56;7.13;;;5.95;;
1567;SDS011;777;47.156;8.326;2022-11-15T12:24:29;6.72;;;4.95;;
1567;SDS011;777;47.156;8.326;2022-11-15T12:27:02;7.00;;;4.90;;
1567;SDS011;777;47.156;8.326;2022-11-15T12:29:34;7.18;;;5.55;;
1567;SDS011;777;47.156;8.326;2022-11-15T12:32:04;8.55;;;5.13;;
1567;SDS011;777;47.156;8.326;2022-11-15T12:34:44;6.45;;;5.40;;
1567;SDS011;777;47.156;8.326;2022-11-15T12:40:31;8.68;;;6.60;;
1567;SDS011;777;47.156;8.326;2022-11-15T12:45:51;7.15;;;5.82;;
1567;SDS011;777;47.156;8.326;2022-11-15T12:51:13;7.10;;;6.40;;
1567;SDS011;777;47.156;8.326;2022-11-15T12:53:40;6.38;;;5.75;;
1567;SDS011;777;47.156;8.326;2022-11-15T12:56:19;6.82;;;5.78;;
1567;SDS011;777;47.156;8.326;2022-11-15T12:59:06;6.05;;;5.43;;
1567;SDS011;777;47.156;8.326;2022-11-15T13:04:29;7.00;;;5.20;;
1567;SDS011;777;47.156;8.326;2022-11-15T13:06:57;6.85;;;5.85;;
1567;SDS011;777;47.156;8.326;2022-11-15T13:15:36;8.60;;;5.15;;
1567;SDS011;777;47.156;8.326;2022-11-15T13:20:56;5.57;;;4.13;;
1567;SDS011;777;47.156;8.326;2022-11-15T13:23:23;7.38;;;4.45;;
1567;SDS011;777;47.156;8.326;2022-11-15T13:25:54;5.80;;;4.57;;
1567;SDS011;777;47.156;8.326;2022-11-15T13:28:41;6.18;;;4.75;;
1567;SDS011;777;47.156;8.326;2022-11-15T13:31:40;5.22;;;4.63;;
1567;SDS011;777;47.156;8.326;2022-11-15T13:34:16;7.95;;;4.65;;
1567;SDS011;777;47.156;8.326;2022-11-15T13:36:53;5.47;;;4.95;;
1567;SDS011;777;47.156;8.326;2022-11-15T13:39:26;5.88;;;4.90;;
1567;SDS011;777;47.156;8.326;2022-11-15T13:41:54;7.05;;;5.18;;
1567;SDS011;777;47.156;8.326;2022-11-15T13:44:23;6.53;;;4.88;;
1567;SDS011;777;47.156;8.326;2022-11-15T13:47:00;7.32;;;5.20;;
1567;SDS011;777;47.156;8.326;2022-11-15T13:49:28;8.10;;;4.85;;
1567;SDS011;777;47.156;8.326;2022-11-15T13:51:56;5.85;;;4.97;;
1567;SDS011;777;47.156;8.326;2022-11-15T13:54:24;6.88;;;4.85;;
1567;SDS011;777;47.156;8.326;2022-11-15T13:56:55;6.03;;;4.82;;
1567;SDS011;777;47.156;8.326;2022-11-15T13:59:27;5.43;;;4.93;;
1567;SDS011;777;47.156;8.326;2022-11-15T14:01:57;10.20;;;5.63;;
1567;SDS011;777;47.156;8.326;2022-11-15T14:04:27;7.55;;;5.10;;
1567;SDS011;777;47.156;8.326;2022-11-15T14:06:59;5.80;;;5.20;;
1567;SDS011;777;47.156;8.326;2022-11-15T14:15:00;5.75;;;4.80;;
1567;SDS011;777;47.156;8.326;2022-11-15T14:17:44;8.68;;;5.15;;
1567;SDS011;777;47.156;8.326;2022-11-15T14:20:19;6.55;;;5.25;;
1567;SDS011;777;47.156;8.326;2022-11-15T14:22:53;6.57;;;5.68;;
1567;SDS011;777;47.156;8.326;2022-11-15T14:25:22;7.20;;;5.72;;
1567;SDS011;777;47.156;8.326;2022-11-15T14:31:04;10.25;;;7.55;;
1567;SDS011;777;47.156;8.326;2022-11-15T14:33:38;9.40;;;7.05;;
1567;SDS011;777;47.156;8.326;2022-11-15T14:36:06;9.68;;;7.88;;
1567;SDS011;777;47.156;8.326;2022-11-15T14:38:37;9.05;;;6.97;;
1567;SDS011;777;47.156;8.326;2022-11-15T14:41:05;6.95;;;5.72;;
1567;SDS011;777;47.156;8.326;2022-11-15T14:43:31;13.18;;;6.43;;
1567;SDS011;777;47.156;8.326;2022-11-15T14:45:58;7.00;;;5.40;;
1567;SDS011;777;47.156;8.326;2022-11-15T14:48:27;5.20;;;4.40;;
1567;SDS011;777;47.156;8.326;2022-11-15T14:50:54;8.73;;;5.22;;
1567;SDS011;777;47.156;8.326;2022-11-15T14:53:21;8.23;;;5.68;;
1567;SDS011;777;47.156;8.326;2022-11-15T14:55:47;6.75;;;5.07;;
1567;SDS011;777;47.156;8.326;2022-11-15T14:58:15;7.55;;;5.00;;
1567;SDS011;777;47.156;8.326;2022-11-15T15:00:42;5.72;;;4.20;;
1567;SDS011;777;47.156;8.326;2022-11-15T15:03:09;4.47;;;3.60;;
1567;SDS011;777;47.156;8.326;2022-11-15T15:05:38;5.05;;;3.70;;
1567;SDS011;777;47.156;8.326;2022-11-15T15:08:07;9.43;;;4.07;;
1567;SDS011;777;47.156;8.326;2022-11-15T15:10:36;5.47;;;3.85;;
1567;SDS011;777;47.156;8.326;2022-11-15T15:13:04;7.35;;;4.00;;
1567;SDS011;777;47.156;8.326;2022-11-15T15:15:32;6.75;;;3.60;;
1567;SDS011;777;47.156;8.326;2022-11-15T15:18:01;5.25;;;3.67;;
1567;SDS011;777;47.156;8.326;2022-11-15T15:20:29;5.03;;;3.55;;
1567;SDS011;777;47.156;8.326;2022-11-15T15:22:58;7.22;;;3.90;;
1567;SDS011;777;47.156;8.326;2022-11-15T15:25:26;8.43;;;5.45;;
1567;SDS011;777;47.156;8.326;2022-11-15T15:27:54;11.30;;;6.05;;
1567;SDS011;777;47.156;8.326;2022-11-15T15:30:22;13.27;;;8.32;;
1567;SDS011;777;47.156;8.326;2022-11-15T15:32:49;10.07;;;7.20;;
1567;SDS011;777;47.156;8.326;2022-11-15T15:35:16;9.35;;;7.57;;
1567;SDS011;777;47.156;8.326;2022-11-15T15:37:44;10.70;;;7.40;;
1567;SDS011;777;47.156;8.326;2022-11-15T15:40:16;8.10;;;7.05;;
1567;SDS011;777;47.156;8.326;2022-11-15T15:42:45;9.27;;;6.68;;
1567;SDS011;777;47.156;8.326;2022-11-15T15:45:12;12.80;;;7.03;;
1567;SDS011;777;47.156;8.326;2022-11-15T15:47:40;7.95;;;7.05;;
1567;SDS011;777;47.156;8.326;2022-11-15T15:50:12;11.30;;;7.53;;
1567;SDS011;777;47.156;8.326;2022-11-15T15:53:05;10.05;;;7.20;;
1567;SDS011;777;47.156;8.326;2022-11-15T15:55:34;10.48;;;7.07;;
1567;SDS011;777;47.156;8.326;2022-11-15T15:58:01;11.27;;;7.10;;
1567;SDS011;777;47.156;8.326;2022-11-15T16:00:28;8.23;;;7.07;;
1567;SDS011;777;47.156;8.326;2022-11-15T16:02:57;8.43;;;7.45;;
1567;SDS011;777;47.156;8.326;2022-11-15T16:05:24;8.75;;;7.13;;
1567;SDS011;777;47.156;8.326;2022-11-15T16:07:51;9.90;;;7.45;;
1567;SDS011;777;47.156;8.326;2022-11-15T16:10:20;11.50;;;7.90;;
1567;SDS011;777;47.156;8.326;2022-11-15T16:12:51;13.20;;;8.40;;
1567;SDS011;777;47.156;8.326;2022-11-15T16:15:18;9.85;;;7.60;;
1567;SDS011;777;47.156;8.326;2022-11-15T16:18:05;12.27;;;8.35;;
1567;SDS011;777;47.156;8.326;2022-11-15T16:20:34;9.02;;;7.15;;
1567;SDS011;777;47.156;8.326;2022-11-15T16:23:04;13.30;;;9.82;;
1567;SDS011;777;47.156;8.326;2022-11-15T16:25:33;14.15;;;10.10;;
1567;SDS011;777;47.156;8.326;2022-11-15T16:28:07;13.18;;;8.95;;
1567;SDS011;777;47.156;8.326;2022-11-15T16:30:42;11.00;;;8.57;;
1567;SDS011;777;47.156;8.326;2022-11-15T16:33:09;13.05;;;9.18;;
1567;SDS011;777;47.156;8.326;2022-11-15T16:35:36;12.10;;;8.32;;
1567;SDS011;777;47.156;8.326;2022-11-15T16:38:03;11.77;;;8.73;;
1567;SDS011;777;47.156;8.326;2022-11-15T16:40:30;11.90;;;8.38;;
1567;SDS011;777;47.156;8.326;2022-11-15T16:42:59;10.20;;;8.50;;
1567;SDS011;777;47.156;8.326;2022-11-15T16:45:28;10.50;;;8.85;;
1567;SDS011;777;47.156;8.326;2022-11-15T16:47:56;12.35;;;9.15;;
1567;SDS011;777;47.156;8.326;2022-11-15T16:50:23;12.00;;;9.20;;
1567;SDS011;777;47.156;8.326;2022-11-15T16:52:51;13.77;;;9.20;;
1567;SDS011;777;47.156;8.326;2022-11-15T16:55:19;11.00;;;9.40;;
1567;SDS011;777;47.156;8.326;2022-11-15T16:57:47;11.82;;;9.65;;
1567;SDS011;777;47.156;8.326;2022-11-15T17:00:15;15.80;;;10.15;;
1567;SDS011;777;47.156;8.326;2022-11-15T17:02:45;16.00;;;10.32;;
1567;SDS011;777;47.156;8.326;2022-11-15T17:05:14;12.32;;;9.88;;
1567;SDS011;777;47.156;8.326;2022-11-15T17:07:41;12.63;;;10.25;;
1567;SDS011;777;47.156;8.326;2022-11-15T17:10:28;16.17;;;11.10;;
1567;SDS011;777;47.156;8.326;2022-11-15T17:12:55;13.32;;;10.40;;
1567;SDS011;777;47.156;8.326;2022-11-15T17:15:22;13.50;;;10.68;;